Time;durP1;ratioP1;P1;durP2;ratioP2;P2;SDS_P1;SDS_P2;PMS_P1;PMS_P2;Temp;Humidity;BMP_temperature;BMP_pressure;BME280_temperature;BME280_humidity;BME280_pressure;Samples;Min_cycle;Max_cycle;Signal;HPM_P1;HPM_P2
2023/10/21 07:01:24;;;;;;;0.40;0.40;;;13.80;99.90;16.80;98580.00;;;;6140575;22;1447678;-64
2023/10/21 07:03:53;;;;;;;0.50;0.50;;;13.90;99.90;16.90;98580.00;;;;6217438;23;20606;-63
2023/10/21 07:06:22;;;;;;;0.77;0.60;;;14.00;99.90;16.40;98577.00;;;;6217413;23;20142;-63
2023/10/21 07:09:32;;;;;;;0.40;0.40;;;14.10;99.90;16.70;98568.00;;;;6216305;23;20595;-64
2023/10/21 07:12:03;;;;;;;0.40;0.40;;;14.10;99.90;16.90;98596.00;;;;6215933;23;20171;-64
2023/10/21 07:14:29;;;;;;;0.40;0.40;;;14.10;99.90;16.90;98588.00;;;;6191288;23;20216;-64
2023/10/21 07:17:03;;;;;;;0.83;0.83;;;14.20;99.90;16.50;98594.00;;;;6191000;23;20167;-64
2023/10/21 07:19:32;;;;;;;0.37;0.37;;;14.10;99.90;16.70;98596.00;;;;6216344;23;20659;-64
2023/10/21 07:22:04;;;;;;;0.40;0.40;;;14.20;99.90;17.00;98613.00;;;;6190829;23;20256;-63
2023/10/21 07:24:33;;;;;;;0.40;0.40;;;14.20;99.90;16.90;98620.00;;;;6215681;23;20158;-63
2023/10/21 07:27:08;;;;;;;2.10;1.13;;;14.20;99.90;17.00;98595.00;;;;6215186;23;20169;-64
2023/10/21 07:29:37;;;;;;;0.70;0.70;;;14.30;99.90;17.00;98634.00;;;;6190844;23;20184;-64
2023/10/21 07:32:24;;;;;;;0.30;0.30;;;14.40;99.90;17.30;98625.00;;;;6214909;23;20593;-65
2023/10/21 07:34:50;;;;;;;0.50;0.50;;;14.30;99.90;16.20;98599.00;;;;6190009;23;20170;-63
2023/10/21 07:37:26;;;;;;;0.30;0.30;;;14.10;99.90;17.00;98640.00;;;;6215302;23;20171;-64
2023/10/21 07:39:55;;;;;;;0.30;0.30;;;14.20;99.90;17.40;98646.00;;;;6216836;23;20231;-64
2023/10/21 07:42:21;;;;;;;0.53;0.40;;;14.40;99.90;17.90;98665.00;;;;6215339;23;20512;-63
2023/10/21 07:44:47;;;;;;;0.47;0.47;;;14.50;99.90;17.50;98664.00;;;;6215645;23;20227;-65
2023/10/21 07:47:13;;;;;;;0.20;0.20;;;14.60;99.90;16.40;98661.00;;;;6216767;23;20148;-63
2023/10/21 07:50:05;;;;;;;0.30;0.30;;;14.40;99.90;16.80;98664.00;;;;6216845;23;20592;-63
2023/10/21 07:52:37;;;;;;;0.30;0.30;;;14.30;99.90;16.70;98662.00;;;;6215651;23;20224;-63
2023/10/21 07:55:12;;;;;;;0.20;0.20;;;14.30;99.90;17.10;98674.00;;;;6214736;23;20558;-64
2023/10/21 07:57:43;;;;;;;1.30;0.50;;;14.40;99.90;17.10;98675.00;;;;6213322;23;20178;-63
2023/10/21 08:00:13;;;;;;;0.30;0.30;;;14.40;99.90;16.90;98684.00;;;;6189752;23;20620;-63
2023/10/21 08:02:44;;;;;;;0.30;0.30;;;14.40;99.90;16.90;98686.00;;;;6190519;23;20187;-63
2023/10/21 08:05:16;;;;;;;0.30;0.30;;;14.40;99.90;16.90;98683.00;;;;6216705;23;20222;-63
2023/10/21 08:07:56;;;;;;;0.27;0.27;;;14.40;99.90;17.50;98673.00;;;;6215360;23;20149;-63
2023/10/21 08:10:22;;;;;;;0.53;0.30;;;14.60;99.90;17.10;98702.00;;;;6214703;23;20141;-63
2023/10/21 08:12:51;;;;;;;0.60;0.60;;;14.60;99.90;17.00;98705.00;;;;6190208;23;20161;-62
2023/10/21 08:15:22;;;;;;;0.60;0.60;;;14.80;99.90;17.00;98704.00;;;;6216570;23;20479;-63
2023/10/21 08:17:53;;;;;;;0.53;0.47;;;14.80;99.90;17.20;98725.00;;;;6215197;23;20145;-63
2023/10/21 08:20:25;;;;;;;1.17;0.60;;;14.70;99.90;17.20;98712.00;;;;6216662;23;20145;-63
2023/10/21 08:22:51;;;;;;;1.63;0.67;;;14.70;99.90;16.50;98736.00;;;;6189783;23;20185;-63
2023/10/21 08:25:25;;;;;;;0.30;0.30;;;14.60;99.90;17.20;98723.00;;;;6215204;23;20181;-62
2023/10/21 08:27:51;;;;;;;0.20;0.20;;;14.50;99.90;17.00;98739.00;;;;6214340;23;20157;-63
2023/10/21 08:30:26;;;;;;;2.03;0.60;;;14.70;99.90;16.60;98733.00;;;;6215304;23;20243;-62
2023/10/21 08:32:58;;;;;;;0.53;0.53;;;14.50;99.90;17.00;98739.00;;;;6216629;23;20147;-63
2023/10/21 08:35:24;;;;;;;0.30;0.30;;;14.60;99.90;17.10;98742.00;;;;6215380;23;20170;-63
2023/10/21 08:37:58;;;;;;;1.00;0.53;;;14.70;99.90;16.90;98726.00;;;;6215936;23;20205;-63
2023/10/21 08:40:25;;;;;;;0.30;0.30;;;14.80;99.90;17.40;98723.00;;;;6216522;23;20569;-63
2023/10/21 08:43:03;;;;;;;0.63;0.57;;;14.80;99.90;17.70;98765.00;;;;6215149;23;20178;-63
2023/10/21 08:45:35;;;;;;;0.40;0.40;;;15.00;99.90;18.00;98768.00;;;;6215037;23;20193;-62
2023/10/21 08:48:09;;;;;;;0.30;0.30;;;15.10;99.90;18.10;98771.00;;;;6216485;23;20147;-63
2023/10/21 08:50:37;;;;;;;1.17;0.30;;;15.20;99.90;17.20;98779.00;;;;6214200;23;20137;-62
2023/10/21 08:53:20;;;;;;;0.30;0.30;;;15.00;99.90;17.70;98784.00;;;;6213695;23;20143;-62
2023/10/21 08:55:49;;;;;;;0.20;0.20;;;15.00;99.90;18.20;98793.00;;;;6215292;23;20146;-63
2023/10/21 08:58:15;;;;;;;0.20;0.20;;;15.20;99.90;17.70;98791.00;;;;6214650;23;20155;-63
2023/10/21 09:00:56;;;;;;;0.57;0.47;;;15.20;99.90;17.60;98787.00;;;;6214771;23;20168;-63
2023/10/21 09:03:30;;;;;;;0.20;0.20;;;15.10;99.90;17.80;98782.00;;;;6216120;23;20183;-64
2023/10/21 09:06:11;;;;;;;0.20;0.20;;;15.20;99.90;17.90;98804.00;;;;6190111;23;20475;-64
2023/10/21 09:08:42;;;;;;;1.50;0.50;;;15.20;99.90;17.50;98801.00;;;;6213826;23;20160;-64
2023/10/21 09:11:11;;;;;;;0.33;0.33;;;15.10;99.90;17.60;98804.00;;;;6214941;23;20158;-63
2023/10/21 09:13:46;;;;;;;0.37;0.30;;;15.20;99.90;17.60;98807.00;;;;6214792;23;20189;-64
2023/10/21 09:16:27;;;;;;;0.20;0.20;;;15.20;99.90;17.20;98818.00;;;;6214488;23;20231;-64
2023/10/21 09:19:06;;;;;;;1.40;0.30;;;15.00;99.90;16.80;98815.00;;;;6214781;23;20171;-64
2023/10/21 09:21:47;;;;;;;2.53;0.40;;;14.70;99.90;17.10;98813.00;;;;6214892;23;20191;-64
2023/10/21 09:24:24;;;;;;;0.53;0.40;;;14.70;99.90;17.60;98833.00;;;;6189337;23;20165;-64
2023/10/21 09:26:51;;;;;;;0.20;0.20;;;14.90;99.90;17.60;98833.00;;;;6216079;23;20141;-63
2023/10/21 09:29:20;;;;;;;4.10;0.40;;;14.80;99.90;17.20;98834.00;;;;6189329;23;20201;-63
2023/10/21 09:31:52;;;;;;;0.30;0.30;;;15.00;99.90;17.40;98841.00;;;;6189621;23;20166;-63
2023/10/21 09:34:33;;;;;;;0.20;0.20;;;15.00;99.90;18.50;98858.00;;;;6214691;23;20143;-63
2023/10/21 09:37:04;;;;;;;1.80;0.60;;;15.30;99.90;17.60;98844.00;;;;6189009;23;20528;-63
2023/10/21 09:39:43;;;;;;;0.30;0.30;;;15.20;99.90;17.60;98849.00;;;;6188977;23;20202;-62
2023/10/21 09:42:09;;;;;;;3.53;0.83;;;15.20;99.90;17.50;98840.00;;;;6190604;23;20208;-64
2023/10/21 09:44:36;;;;;;;0.63;0.40;;;15.20;99.90;17.70;98843.00;;;;6214226;23;20163;-64
2023/10/21 09:47:15;;;;;;;0.30;0.30;;;15.10;99.90;17.20;98843.00;;;;6189322;23;20176;-64
2023/10/21 09:49:56;;;;;;;0.27;0.27;;;15.10;99.90;17.50;98846.00;;;;6214535;23;20607;-64
2023/10/21 09:52:30;;;;;;;1.17;0.77;;;15.20;99.90;17.60;98827.00;;;;6214192;23;20451;-64
2023/10/21 09:55:10;;;;;;;2.30;0.70;;;15.30;99.90;17.50;98850.00;;;;6214250;23;20140;-63
2023/10/21 09:57:43;;;;;;;0.93;0.47;;;15.20;99.90;17.80;98838.00;;;;6215918;23;20513;-63
2023/10/21 10:00:17;;;;;;;0.20;0.20;;;15.20;99.90;17.80;98854.00;;;;6213992;23;20172;-63
2023/10/21 10:02:56;;;;;;;0.23;0.23;;;15.30;99.90;17.30;98851.00;;;;6213841;23;20531;-63
2023/10/21 10:05:33;;;;;;;0.20;0.20;;;15.20;99.90;18.50;98852.00;;;;6213759;23;20159;-63
2023/10/21 10:08:05;;;;;;;0.77;0.37;;;15.40;99.90;18.10;98858.00;;;;6189262;23;20266;-63
2023/10/21 10:10:38;;;;;;;3.50;1.10;;;15.50;99.90;18.20;98849.00;;;;6188794;23;20200;-63
2023/10/21 10:13:14;;;;;;;1.13;0.73;;;15.60;99.90;17.70;98858.00;;;;6189519;23;20248;-63
2023/10/21 10:15:46;;;;;;;0.40;0.30;;;15.50;99.90;18.50;98860.00;;;;6189484;23;20460;-62
2023/10/21 10:18:19;;;;;;;0.40;0.37;;;15.70;99.90;17.80;98868.00;;;;6214335;23;20148;-64
2023/10/21 10:20:50;;;;;;;2.63;0.50;;;15.60;99.90;18.00;98850.00;;;;6213982;23;20149;-64
2023/10/21 10:33:36;;;;;;;0.20;0.20;;;15.00;99.90;17.50;98854.00;;;;5060859;27;20567;-64
2023/10/21 10:36:26;;;;;;;0.40;0.40;;;15.20;99.90;17.90;98889.00;;;;5026538;28;20722;-65
2023/10/21 10:39:04;;;;;;;0.70;0.47;;;15.70;99.90;17.90;98876.00;;;;5038924;28;20248;-65
2023/10/21 10:41:49;;;;;;;0.30;0.30;;;15.60;99.90;18.10;98881.00;;;;5030292;28;20201;-65
2023/10/21 10:44:20;;;;;;;2.33;0.77;;;15.60;99.90;18.30;98877.00;;;;5025447;28;20181;-65
2023/10/21 10:46:53;;;;;;;2.13;0.73;;;15.80;99.90;18.60;98865.00;;;;5021595;28;20189;-65
2023/10/21 10:49:24;;;;;;;6.83;0.90;;;16.20;99.90;18.30;98875.00;;;;5028701;28;20192;-65
2023/10/21 10:52:00;;;;;;;0.57;0.37;;;16.10;99.90;19.20;98869.00;;;;5027804;28;20208;-65
2023/10/21 10:54:29;;;;;;;1.40;0.80;;;16.30;99.90;19.60;98879.00;;;;5029143;28;20211;-65
2023/10/21 10:57:01;;;;;;;1.07;0.50;;;16.70;99.90;19.20;98879.00;;;;5027923;28;20240;-65
2023/10/21 10:59:33;;;;;;;0.60;0.50;;;16.70;99.90;18.50;98882.00;;;;5029963;28;20269;-65
2023/10/21 11:02:03;;;;;;;0.53;0.40;;;16.50;99.90;18.50;98871.00;;;;5044949;28;20196;-65
2023/10/21 11:04:35;;;;;;;0.40;0.30;;;16.20;99.90;18.50;98877.00;;;;5027700;28;20195;-65
2023/10/21 11:07:03;;;;;;;6.30;1.40;;;16.00;99.90;18.60;98870.00;;;;5020131;28;20184;-65
2023/10/21 11:09:36;;;;;;;0.43;0.43;;;16.00;99.90;18.80;98878.00;;;;5028316;28;20215;-65
2023/10/21 11:12:11;;;;;;;6.43;1.23;;;16.00;99.90;18.00;98884.00;;;;5029174;28;20280;-64
2023/10/21 11:15:08;;;;;;;1.27;1.10;;;15.90;99.90;18.30;98885.00;;;;5028546;28;20186;-64
2023/10/21 11:17:57;;;;;;;0.53;0.50;;;15.80;99.90;18.70;98886.00;;;;5035059;28;20196;-64
2023/10/21 11:20:44;;;;;;;4.63;1.60;;;15.90;99.90;18.50;98885.00;;;;5027699;28;20209;-64
2023/10/21 11:23:30;;;;;;;4.40;0.87;;;15.90;99.90;18.20;98882.00;;;;5025521;28;20223;-64
2023/10/21 11:25:58;;;;;;;0.30;0.20;;;15.80;99.90;18.30;98893.00;;;;5028073;28;20204;-64
2023/10/21 11:28:25;;;;;;;5.10;1.07;;;15.80;99.90;18.20;98890.00;;;;5028165;28;20183;-64
2023/10/21 11:30:52;;;;;;;0.80;0.70;;;15.80;99.90;18.20;98891.00;;;;5030500;28;20190;-65
2023/10/21 11:33:25;;;;;;;3.00;0.97;;;15.70;99.90;18.10;98894.00;;;;5027917;28;20211;-64
2023/10/21 11:35:52;;;;;;;0.77;0.43;;;15.70;99.90;18.00;98906.00;;;;5031127;28;20214;-65
2023/10/21 11:38:28;;;;;;;0.10;0.10;;;15.60;99.90;18.30;98902.00;;;;5026449;28;20709;-64
2023/10/21 11:41:01;;;;;;;3.73;0.47;;;15.50;99.90;18.10;98900.00;;;;5033177;28;20204;-64
2023/10/21 11:43:35;;;;;;;0.40;0.40;;;15.40;99.90;18.10;98905.00;;;;5006175;28;20273;-64
2023/10/21 11:46:13;;;;;;;2.43;1.10;;;15.40;99.90;17.90;98903.00;;;;5014545;28;20265;-64
2023/10/21 11:48:42;;;;;;;1.27;1.00;;;15.30;99.90;18.00;98893.00;;;;5015630;28;20187;-64
2023/10/21 11:51:29;;;;;;;1.17;0.70;;;15.30;99.90;17.80;98890.00;;;;5014113;28;20199;-65
2023/10/21 11:54:03;;;;;;;0.87;0.57;;;15.30;99.90;18.00;98895.00;;;;5020168;28;20215;-64
2023/10/21 12:18:34;;;;;;;1.63;0.80;;;15.00;99.90;17.00;98869.00;;;;5011889;28;20224;-64
2023/10/21 12:46:17;;;;;;;2.17;0.60;;;14.50;99.90;16.80;98870.00;;;;5014790;28;20246;-64
2023/10/21 12:48:52;;;;;;;4.50;1.07;;;14.40;99.90;16.80;98873.00;;;;5023759;28;20535;-64
2023/10/21 12:51:24;;;;;;;0.90;0.27;;;14.30;99.90;17.10;98874.00;;;;5020336;28;20189;-64
2023/10/21 12:53:58;;;;;;;1.00;0.90;;;14.30;99.90;17.00;98869.00;;;;5012827;28;20594;-64
2023/10/21 12:56:24;;;;;;;1.20;0.87;;;14.30;99.90;16.90;98896.00;;;;4993331;28;20551;-64
2023/10/21 12:58:50;;;;;;;0.73;0.73;;;14.30;99.90;17.20;98875.00;;;;5025935;28;20185;-64
2023/10/21 13:01:24;;;;;;;2.43;1.50;;;14.30;99.90;16.80;98885.00;;;;5003042;28;20266;-64
2023/10/21 13:03:57;;;;;;;3.43;2.93;;;14.40;99.90;17.30;98898.00;;;;5013163;28;20672;-64
2023/10/21 13:06:25;;;;;;;1.57;0.90;;;14.40;99.90;17.00;98891.00;;;;5012840;28;20209;-64
2023/10/21 13:08:52;;;;;;;0.50;0.50;;;14.40;99.90;16.90;98882.00;;;;5014542;28;20186;-65
2023/10/21 13:12:16;;;;;;;1.17;1.07;;;14.40;99.90;17.70;98895.00;;;;5012591;28;20185;-64
2023/10/21 13:15:25;;;;;;;2.53;0.70;;;14.50;99.90;16.80;98863.00;;;;4996087;28;20703;-64
2023/10/21 13:18:09;;;;;;;1.90;0.90;;;14.40;99.90;16.80;98901.00;;;;5011511;28;20180;-64
2023/10/21 13:20:54;;;;;;;0.53;0.53;;;14.30;99.90;17.00;98899.00;;;;5012342;28;20192;-64
2023/10/21 13:23:25;;;;;;;0.30;0.30;;;14.20;99.90;17.30;98899.00;;;;5006059;28;20191;-64
2023/10/21 13:26:06;;;;;;;0.47;0.47;;;14.20;99.90;17.10;98901.00;;;;5013132;28;20241;-64
2023/10/21 13:28:39;;;;;;;1.07;1.07;;;14.10;99.90;16.40;98903.00;;;;5007598;28;20733;-64
2023/10/21 13:31:28;;;;;;;1.90;1.27;;;14.00;99.90;16.90;98888.00;;;;5012679;28;20185;-64
2023/10/21 13:34:29;;;;;;;0.40;0.40;;;14.00;99.90;16.30;98895.00;;;;5029167;28;20203;-64
2023/10/21 13:36:56;;;;;;;5.70;0.80;;;13.90;99.90;16.60;98888.00;;;;5012761;28;20184;-64
2023/10/21 13:42:37;;;;;;;0.50;0.50;;;14.00;99.90;17.00;98890.00;;;;5019887;28;20230;-66
2023/10/21 13:45:19;;;;;;;1.70;1.60;;;14.00;99.90;17.00;98898.00;;;;5003664;28;20200;-66
2023/10/21 13:48:16;;;;;;;0.40;0.40;;;14.10;99.90;16.60;98898.00;;;;5012880;28;20188;-66
2023/10/21 13:50:43;;;;;;;3.60;1.20;;;14.00;99.90;16.50;98893.00;;;;5011619;28;20199;-66
2023/10/21 13:53:17;;;;;;;9.00;1.43;;;13.90;99.90;15.80;98894.00;;;;5013455;28;20203;-66
2023/10/21 13:55:46;;;;;;;5.00;1.27;;;13.80;99.90;16.30;98890.00;;;;5014096;28;20700;-66
2023/10/21 13:58:18;;;;;;;1.10;1.10;;;13.70;99.90;16.00;98886.00;;;;5019671;28;20586;-66
2023/10/21 14:00:59;;;;;;;1.37;1.37;;;13.60;99.90;16.10;98898.00;;;;5012689;28;20279;-65
2023/10/21 14:04:09;;;;;;;0.80;0.80;;;13.60;99.90;16.00;98898.00;;;;5014555;28;20188;-66
2023/10/21 14:06:43;;;;;;;2.90;2.37;;;13.60;99.90;15.40;98896.00;;;;5012525;28;20207;-65
2023/10/21 14:09:28;;;;;;;2.73;2.07;;;13.40;99.90;15.50;98900.00;;;;5028710;28;20175;-66
2023/10/21 14:12:00;;;;;;;1.13;1.13;;;13.40;99.90;15.80;98912.00;;;;5015323;28;20303;-66
2023/10/21 14:15:05;;;;;;;1.40;1.40;;;13.40;99.90;15.60;98909.00;;;;5007928;28;20187;-66
2023/10/21 14:17:34;;;;;;;1.20;1.20;;;13.40;99.90;15.60;98900.00;;;;4995374;28;20423;-66
2023/10/21 14:20:10;;;;;;;3.23;1.47;;;13.40;99.90;15.60;98908.00;;;;5013203;28;20661;-65
2023/10/21 14:22:42;;;;;;;13.20;1.53;;;13.40;99.90;15.60;98899.00;;;;5011236;28;20286;-65
2023/10/21 14:25:23;;;;;;;1.33;1.30;;;13.30;99.90;15.70;98902.00;;;;5027263;28;20180;-66
2023/10/21 14:27:51;;;;;;;3.17;1.50;;;13.40;99.90;15.40;98903.00;;;;5012209;28;20239;-66
2023/10/21 14:30:32;;;;;;;1.23;1.10;;;13.30;99.90;15.50;98906.00;;;;5012329;28;20188;-65
2023/10/21 14:33:19;;;;;;;3.90;1.87;;;13.30;99.90;15.60;98898.00;;;;5028529;28;20218;-65
2023/10/21 14:35:54;;;;;;;2.33;1.50;;;13.30;99.90;15.40;98911.00;;;;4995839;28;20215;-66
2023/10/21 14:38:26;;;;;;;1.00;1.00;;;13.30;99.90;15.60;98917.00;;;;5011798;28;20192;-66
2023/10/21 14:40:57;;;;;;;0.80;0.80;;;13.30;99.90;15.90;98917.00;;;;5025816;28;20192;-66
2023/10/21 14:43:23;;;;;;;4.17;1.90;;;13.40;99.90;15.70;98921.00;;;;5013232;28;20672;-66
2023/10/21 14:45:55;;;;;;;2.87;1.23;;;13.40;99.90;16.10;98918.00;;;;5012442;28;20266;-66
2023/10/21 14:48:21;;;;;;;1.30;1.30;;;13.50;99.90;15.70;98896.00;;;;5011490;28;20250;-66
2023/10/21 14:50:49;;;;;;;0.80;0.80;;;13.60;99.90;16.20;98917.00;;;;5011302;28;20194;-66
2023/10/21 14:53:20;;;;;;;1.00;1.00;;;13.60;99.90;15.80;98914.00;;;;5012863;28;20199;-66
2023/10/21 14:55:50;;;;;;;2.43;2.23;;;13.60;99.90;15.80;98923.00;;;;5011492;28;20179;-66
2023/10/21 14:58:33;;;;;;;1.30;1.20;;;13.50;99.90;16.10;98924.00;;;;4995571;28;20430;-65
2023/10/21 15:01:11;;;;;;;1.10;1.00;;;13.50;99.90;16.00;98933.00;;;;5005440;28;20191;-65
2023/10/21 15:03:37;;;;;;;2.60;1.13;;;13.60;99.90;15.70;98925.00;;;;5012162;28;20679;-64
2023/10/21 15:06:09;;;;;;;1.80;1.17;;;13.50;99.90;15.80;98933.00;;;;5011368;28;20790;-66
2023/10/21 15:08:41;;;;;;;1.60;1.37;;;13.50;99.90;15.50;98931.00;;;;5012942;28;20578;-67
2023/10/21 15:11:24;;;;;;;1.17;0.80;;;13.50;99.90;15.80;98922.00;;;;5011368;28;20186;-66
2023/10/21 15:13:56;;;;;;;0.77;0.70;;;13.50;99.90;16.40;98932.00;;;;5000640;28;20184;-66
2023/10/21 15:16:22;;;;;;;1.33;1.03;;;13.60;99.90;15.80;98891.00;;;;5012914;28;20187;-66
2023/10/21 15:18:53;;;;;;;0.70;0.70;;;13.70;99.90;16.40;98917.00;;;;5013820;28;20574;-66
2023/10/21 15:21:19;;;;;;;0.80;0.80;;;13.70;99.90;16.20;98924.00;;;;5015497;28;20195;-66
2023/10/21 15:23:57;;;;;;;0.90;0.90;;;13.70;99.90;16.10;98896.00;;;;5014985;28;20188;-67
2023/10/21 15:26:43;;;;;;;1.80;1.70;;;13.80;99.90;16.30;98911.00;;;;5013403;28;20646;-67
2023/10/21 15:29:18;;;;;;;0.90;0.90;;;13.90;99.90;16.30;98906.00;;;;4999050;28;20756;-67
2023/10/21 15:31:47;;;;;;;0.80;0.80;;;13.90;99.90;16.80;98922.00;;;;5012759;28;20227;-67
2023/10/21 15:34:22;;;;;;;1.80;1.70;;;14.10;99.90;16.70;98888.00;;;;5014122;28;20395;-67
2023/10/21 15:36:56;;;;;;;3.27;1.10;;;14.10;99.90;16.40;98916.00;;;;5015639;28;20194;-68
2023/10/21 15:39:27;;;;;;;3.27;1.50;;;14.10;99.90;16.80;98919.00;;;;5012971;28;20188;-68
2023/10/21 15:42:01;;;;;;;0.90;0.90;;;14.20;99.90;17.00;98915.00;;;;5017481;28;20250;-69
2023/10/21 15:44:38;;;;;;;2.27;1.67;;;14.30;99.90;16.70;98903.00;;;;5013366;28;20662;-67
2023/10/21 15:47:10;;;;;;;6.50;2.40;;;14.30;99.90;16.60;98925.00;;;;5013479;28;20250;-67
2023/10/21 15:49:44;;;;;;;0.90;0.90;;;14.30;99.90;16.80;98920.00;;;;5014864;28;20201;-67
2023/10/21 15:52:21;;;;;;;4.30;2.27;;;14.40;99.90;16.20;98914.00;;;;5008107;28;20209;-67
2023/10/21 15:54:53;;;;;;;2.80;1.20;;;14.30;99.90;16.70;98922.00;;;;4995409;28;20192;-67
2023/10/21 15:57:28;;;;;;;1.10;1.10;;;14.40;99.90;16.90;98920.00;;;;5013267;28;20630;-67
2023/10/21 15:59:54;;;;;;;5.30;1.30;;;14.50;99.90;17.10;98944.00;;;;5013844;28;20254;-67
2023/10/21 16:02:23;;;;;;;0.70;0.70;;;14.60;99.90;17.10;98939.00;;;;4997740;28;20207;-68
2023/10/21 16:04:55;;;;;;;1.07;1.03;;;14.60;99.90;17.10;98946.00;;;;5013860;28;20190;-68
2023/10/21 16:07:30;;;;;;;2.27;2.20;;;14.60;99.90;17.40;98958.00;;;;5013189;28;20205;-67
2023/10/21 16:10:17;;;;;;;11.13;1.33;;;14.70;99.90;17.40;98976.00;;;;5013982;28;20185;-67
2023/10/21 16:13:09;;;;;;;1.87;0.70;;;14.70;99.90;17.00;98931.00;;;;5015582;28;20563;-67
2023/10/21 16:16:03;;;;;;;1.80;0.97;;;14.60;99.90;17.50;98965.00;;;;5006498;28;20652;-67
2023/10/21 16:18:55;;;;;;;1.53;1.00;;;14.80;99.90;17.80;98980.00;;;;5018537;28;20291;-67
2023/10/21 16:21:32;;;;;;;0.70;0.70;;;14.90;99.90;17.50;98968.00;;;;5004755;28;20190;-67
2023/10/21 16:24:21;;;;;;;1.77;1.67;;;14.80;99.90;17.50;98975.00;;;;5023823;28;20188;-67
2023/10/21 16:27:15;;;;;;;2.77;1.50;;;14.80;99.90;17.40;98972.00;;;;5016779;28;20208;-67
2023/10/21 16:30:11;;;;;;;0.70;0.70;;;14.90;99.90;17.50;98981.00;;;;5013025;28;20257;-67
2023/10/21 16:33:09;;;;;;;0.90;0.90;;;14.90;99.90;17.50;98991.00;;;;5012905;28;20313;-67
2023/10/21 16:36:07;;;;;;;1.50;1.10;;;14.90;99.90;17.70;98988.00;;;;4977737;28;20204;-67
2023/10/21 16:39:04;;;;;;;1.77;1.43;;;14.90;99.90;17.60;98995.00;;;;5013577;28;20198;-67
2023/10/21 16:42:16;;;;;;;0.77;0.77;;;14.90;99.90;18.10;99002.00;;;;5011121;28;20227;-67
2023/10/21 16:45:11;;;;;;;1.00;1.00;;;15.10;99.90;18.00;98974.00;;;;4985428;28;20205;-67
2023/10/21 16:48:12;;;;;;;1.40;0.93;;;15.10;99.90;17.90;98994.00;;;;4977839;28;20202;-67
2023/10/21 16:51:20;;;;;;;9.00;1.63;;;15.00;99.90;17.90;99010.00;;;;5009814;28;20255;-67
2023/10/21 16:54:19;;;;;;;0.80;0.80;;;15.00;99.90;18.20;99015.00;;;;4983110;28;20237;-67
2023/10/21 16:57:31;;;;;;;1.57;1.47;;;15.20;99.90;17.70;99018.00;;;;4974651;28;20229;-67
2023/10/21 17:00:35;;;;;;;5.50;1.43;;;15.10;99.90;17.80;99017.00;;;;5013017;28;20197;-67
2023/10/21 17:03:27;;;;;;;0.97;0.97;;;15.00;99.90;18.10;99018.00;;;;5012456;28;20258;-67
2023/10/21 17:06:38;;;;;;;1.03;1.03;;;15.10;99.90;18.10;99024.00;;;;5026191;28;20221;-67
2023/10/21 17:09:50;;;;;;;3.70;1.58;;;15.20;99.90;17.90;99030.00;;;;5000175;28;20442;-67
2023/10/21 17:12:45;;;;;;;0.60;0.60;;;15.10;99.90;18.20;99024.00;;;;5012677;28;20556;-67
2023/10/21 17:15:43;;;;;;;1.53;0.70;;;15.20;99.90;17.80;99034.00;;;;5016036;28;20197;-67
2023/10/21 17:18:30;;;;;;;4.93;1.53;;;15.10;99.90;17.20;99027.00;;;;4991187;28;20304;-67
2023/10/21 17:21:31;;;;;;;0.67;0.67;;;15.00;99.90;17.80;99044.00;;;;5005504;28;20206;-67
2023/10/21 17:23:59;;;;;;;0.70;0.70;;;15.10;99.90;17.90;99037.00;;;;4995528;28;20190;-67
2023/10/21 17:26:46;;;;;;;1.60;1.00;;;15.10;99.90;17.90;99051.00;;;;5012681;28;20189;-67
2023/10/21 17:29:41;;;;;;;0.70;0.70;;;15.20;99.90;18.10;99055.00;;;;5013918;28;20194;-67
2023/10/21 17:32:52;;;;;;;2.23;0.80;;;15.20;99.90;18.00;99052.00;;;;4987555;28;20222;-67
2023/10/21 17:35:49;;;;;;;0.93;0.63;;;15.10;99.90;17.60;99047.00;;;;5012563;28;20281;-67
2023/10/21 17:39:11;;;;;;;2.57;0.93;;;15.10;99.90;17.80;99052.00;;;;5008120;28;20190;-67
2023/10/21 17:42:35;;;;;;;0.57;0.50;;;15.00;99.90;17.80;99052.00;;;;5004264;28;20206;-67
2023/10/21 17:45:48;;;;;;;0.97;0.97;;;15.20;99.90;18.10;99032.00;;;;5005000;28;20209;-67
2023/10/21 17:48:53;;;;;;;0.70;0.70;;;15.20;99.90;18.40;99037.00;;;;5008890;28;20664;-67
2023/10/21 17:51:56;;;;;;;0.70;0.70;;;15.30;99.90;17.60;99032.00;;;;5004897;28;20572;-67
2023/10/21 17:59:07;;;;;;;0.73;0.50;;;15.30;99.90;18.60;99037.00;;;;5010790;28;20196;-67
2023/10/21 18:02:08;;;;;;;1.40;1.30;;;15.50;99.90;18.60;99052.00;;;;4993335;28;20289;-67
2023/10/21 18:05:27;;;;;;;2.97;0.87;;;15.50;99.90;18.40;99073.00;;;;5005661;28;20639;-67
2023/10/21 18:08:41;;;;;;;2.37;1.93;;;15.50;99.90;18.00;99065.00;;;;4992058;28;20253;-67
2023/10/21 18:11:10;;;;;;;2.60;1.03;;;15.30;99.90;18.10;99068.00;;;;5011051;28;20190;-67
2023/10/21 18:14:09;;;;;;;1.23;1.13;;;15.30;99.90;18.10;99072.00;;;;4999151;28;20666;-67
2023/10/21 18:16:43;;;;;;;1.20;0.67;;;15.40;99.90;17.80;99069.00;;;;4990702;28;20199;-67
2023/10/21 18:19:24;;;;;;;0.63;0.63;;;15.30;99.90;18.50;99047.00;;;;4995895;28;20397;-67
2023/10/21 18:21:59;;;;;;;0.40;0.40;;;15.40;99.90;18.30;99079.00;;;;5011561;28;20193;-67
2023/10/21 18:24:28;;;;;;;2.53;1.70;;;15.30;99.90;18.30;99078.00;;;;4992823;28;20787;-67
2023/10/21 18:27:04;;;;;;;0.33;0.33;;;15.40;99.90;18.30;99084.00;;;;5011891;28;20217;-67
2023/10/21 18:29:39;;;;;;;0.30;0.30;;;15.30;99.90;17.90;99067.00;;;;5016569;28;20557;-67
2023/10/21 18:32:32;;;;;;;0.50;0.30;;;15.20;99.90;18.30;99087.00;;;;5014623;28;20213;-67
2023/10/21 18:35:06;;;;;;;0.27;0.27;;;15.20;99.90;18.20;99074.00;;;;5016386;28;20595;-67
2023/10/21 18:37:36;;;;;;;0.60;0.60;;;15.30;99.90;18.00;99064.00;;;;5010780;28;20192;-67
2023/10/21 18:40:14;;;;;;;1.03;0.70;;;15.20;99.90;17.60;99091.00;;;;5011199;28;20246;-67
2023/10/21 18:42:45;;;;;;;0.70;0.70;;;15.20;99.90;17.90;99073.00;;;;5010653;28;20262;-66
2023/10/21 18:45:26;;;;;;;1.50;0.57;;;15.10;99.90;17.70;99070.00;;;;5020453;28;20185;-66
2023/10/21 18:48:15;;;;;;;1.37;0.60;;;15.10;99.90;17.70;99085.00;;;;5011813;28;20194;-66
2023/10/21 18:51:04;;;;;;;5.07;0.57;;;15.10;99.90;17.20;99064.00;;;;5011769;28;20205;-66
2023/10/21 18:54:05;;;;;;;0.30;0.30;;;15.00;99.90;17.60;99091.00;;;;5012542;28;20717;-66
2023/10/21 18:56:51;;;;;;;1.43;0.60;;;15.10;99.90;17.50;99077.00;;;;5001579;28;20198;-66
2023/10/21 18:59:22;;;;;;;0.57;0.57;;;15.00;99.90;18.00;99088.00;;;;5013212;28;20206;-66
2023/10/21 19:02:18;;;;;;;2.13;0.80;;;15.20;99.90;18.20;99094.00;;;;5016684;28;20259;-66
2023/10/21 19:04:49;;;;;;;2.00;0.40;;;15.20;99.90;17.30;99053.00;;;;5020438;28;20181;-67
2023/10/21 19:07:52;;;;;;;1.30;0.30;;;15.10;99.90;17.70;99090.00;;;;5017399;28;20659;-67
2023/10/21 19:10:41;;;;;;;0.33;0.33;;;15.10;99.90;17.50;99075.00;;;;5019835;28;20187;-67
2023/10/21 19:13:39;;;;;;;1.50;0.70;;;15.10;99.90;17.40;99057.00;;;;5014636;28;20676;-66
2023/10/21 19:16:19;;;;;;;0.30;0.30;;;14.90;99.90;17.50;99084.00;;;;5014570;28;20226;-66
2023/10/21 19:18:58;;;;;;;0.53;0.53;;;15.00;99.90;17.70;99088.00;;;;5015135;28;20203;-66
2023/10/21 19:21:35;;;;;;;0.40;0.40;;;15.10;99.90;18.00;99067.00;;;;5015078;28;20524;-66
2023/10/21 19:24:09;;;;;;;3.70;0.60;;;15.10;99.90;17.30;99075.00;;;;5012398;28;20197;-66
2023/10/21 19:26:35;;;;;;;0.37;0.33;;;15.00;99.90;16.90;99037.00;;;;4994298;28;20605;-66
2023/10/21 19:29:15;;;;;;;0.40;0.40;;;14.80;99.90;17.10;99033.00;;;;5024694;28;20184;-66
2023/10/21 19:31:56;;;;;;;0.50;0.50;;;14.80;99.90;16.70;99064.00;;;;4998442;28;20615;-66
2023/10/21 19:34:34;;;;;;;0.70;0.63;;;14.70;99.90;16.80;99064.00;;;;5015347;28;20602;-66
2023/10/21 19:37:10;;;;;;;0.37;0.37;;;14.60;99.90;16.60;99072.00;;;;5010825;28;20212;-66
2023/10/21 19:39:48;;;;;;;0.73;0.40;;;14.50;99.90;16.50;99068.00;;;;5016116;28;20276;-67
2023/10/21 19:42:45;;;;;;;4.57;0.70;;;14.40;99.90;16.80;99033.00;;;;5007966;28;20251;-66
2023/10/21 19:45:28;;;;;;;0.30;0.30;;;14.40;99.90;17.30;99073.00;;;;5010672;28;20202;-66
2023/10/21 19:48:35;;;;;;;0.47;0.47;;;14.60;99.90;17.20;99072.00;;;;5008959;28;20580;-66
2023/10/21 19:51:32;;;;;;;3.10;0.60;;;14.50;99.90;16.30;99063.00;;;;5018569;28;20212;-67
2023/10/21 19:53:58;;;;;;;0.93;0.93;;;14.40;99.90;16.50;99071.00;;;;5015334;28;20539;-67